createdAt,value
2018-08-23T00:00:47.769Z,63.30
2018-08-23T00:03:21.732Z,63.50
2018-08-23T00:05:52.523Z,63.20
2018-08-23T00:08:21.887Z,63.10
2018-08-23T00:10:51.284Z,63.30
2018-08-23T00:13:20.496Z,63.40
2018-08-23T00:15:49.462Z,64.10
2018-08-23T00:18:18.299Z,64.40
2018-08-23T00:20:47.199Z,65.10
2018-08-23T00:23:16.066Z,65.50
2018-08-23T00:25:44.973Z,65.70
2018-08-23T00:28:13.900Z,65.90
2018-08-23T00:30:43.989Z,66.40
2018-08-23T00:33:12.769Z,66.40
2018-08-23T00:35:41.661Z,66.80
2018-08-23T00:38:10.485Z,67.10
2018-08-23T00:40:41.481Z,67.10
2018-08-23T00:43:11.609Z,67.10
2018-08-23T00:45:40.442Z,67.30
2018-08-23T00:48:11.337Z,67.00
2018-08-23T00:50:56.031Z,66.40
2018-08-23T00:53:25.007Z,66.10
2018-08-23T00:56:26.300Z,66.10
2018-08-23T00:58:58.939Z,66.00
2018-08-23T01:01:27.833Z,65.70
2018-08-23T01:03:56.714Z,65.40
2018-08-23T01:06:36.462Z,65.90
2018-08-23T01:09:07.227Z,66.20
2018-08-23T01:11:36.112Z,66.20
2018-08-23T01:14:05.056Z,66.60
2018-08-23T01:16:34.020Z,66.90
2018-08-23T01:19:08.109Z,67.00
2018-08-23T01:21:55.453Z,67.00
2018-08-23T01:24:28.009Z,67.20
2018-08-23T01:26:56.765Z,67.10
2018-08-23T01:29:28.509Z,67.20
2018-08-23T01:32:07.594Z,67.50
2018-08-23T01:34:36.647Z,67.90
2018-08-23T01:37:05.478Z,68.10
2018-08-23T01:39:34.454Z,68.20
2018-08-23T01:42:03.307Z,68.50
2018-08-23T01:44:36.482Z,68.80
2018-08-23T01:47:05.389Z,69.60
2018-08-23T01:49:34.286Z,69.70
2018-08-23T01:52:03.158Z,70.00
2018-08-23T01:54:32.016Z,70.70
2018-08-23T01:57:00.888Z,70.50
2018-08-23T01:59:29.732Z,70.80
2018-08-23T02:01:59.863Z,71.00
2018-08-23T02:04:28.748Z,71.10
2018-08-23T02:06:57.641Z,71.20
2018-08-23T02:09:27.359Z,71.40
2018-08-23T02:11:56.258Z,71.30
2018-08-23T02:14:25.252Z,71.10
2018-08-23T02:16:54.209Z,71.20
2018-08-23T02:19:23.143Z,71.20
2018-08-23T02:21:51.925Z,71.00
2018-08-23T02:24:24.954Z,71.00
2018-08-23T02:26:53.873Z,71.10
2018-08-23T02:29:33.768Z,71.30
2018-08-23T02:32:03.426Z,71.60
2018-08-23T02:34:37.537Z,72.00
2018-08-23T02:37:06.353Z,72.30
2018-08-23T02:39:35.273Z,72.90
2018-08-23T02:42:04.126Z,73.20
2018-08-23T02:44:33.035Z,73.30
2018-08-23T02:47:03.623Z,73.50
2018-08-23T02:49:32.527Z,73.20
2018-08-23T02:52:03.476Z,73.30
2018-08-23T02:54:32.576Z,73.60
2018-08-23T02:57:01.984Z,73.50
2018-08-23T02:59:31.422Z,73.20
2018-08-23T03:02:00.341Z,73.00
2018-08-23T03:04:30.229Z,72.90
2018-08-23T03:07:05.286Z,72.80
2018-08-23T03:09:36.241Z,72.80
2018-08-23T03:12:11.153Z,72.70
2018-08-23T03:14:40.783Z,72.80
2018-08-23T03:17:16.873Z,72.60
2018-08-23T03:20:00.035Z,72.60
2018-08-23T03:22:29.530Z,72.90
2018-08-23T03:25:00.098Z,72.90
2018-08-23T03:27:29.562Z,73.00
2018-08-23T03:29:58.385Z,73.30
2018-08-23T03:32:27.415Z,72.90
2018-08-23T03:34:56.511Z,72.90
2018-08-23T03:37:26.457Z,73.20
2018-08-23T03:39:55.383Z,72.90
2018-08-23T03:42:24.420Z,72.70
2018-08-23T03:44:54.397Z,72.80
2018-08-23T03:47:23.763Z,72.20
2018-08-23T03:49:52.790Z,72.30
2018-08-23T03:52:24.038Z,72.40
2018-08-23T03:54:55.356Z,72.00
2018-08-23T03:57:28.405Z,72.00
2018-08-23T03:59:57.325Z,72.10
2018-08-23T04:02:26.180Z,72.20
2018-08-23T04:05:13.547Z,72.00
2018-08-23T04:07:43.595Z,71.90
2018-08-23T04:10:12.558Z,72.10
2018-08-23T04:12:42.609Z,72.30
2018-08-23T04:15:30.210Z,72.30
2018-08-23T04:18:03.182Z,72.80
2018-08-23T04:20:32.077Z,72.60
2018-08-23T04:23:00.898Z,72.60
2018-08-23T04:25:29.611Z,72.60
2018-08-23T04:27:58.393Z,72.40
2018-08-23T04:30:27.299Z,72.30
2018-08-23T04:32:56.141Z,72.10
2018-08-23T04:35:27.930Z,72.20
2018-08-23T04:37:57.068Z,72.10
2018-08-23T04:40:25.940Z,71.60
2018-08-23T04:42:54.715Z,71.60
2018-08-23T04:45:25.561Z,71.60
2018-08-23T04:47:59.026Z,71.20
2018-08-23T04:50:28.029Z,71.40
2018-08-23T04:53:03.429Z,71.20
2018-08-23T04:55:32.293Z,71.00
2018-08-23T04:58:01.792Z,70.80
2018-08-23T05:00:31.096Z,70.60
2018-08-23T05:03:00.061Z,70.50
2018-08-23T05:05:28.961Z,70.50
2018-08-23T05:07:57.985Z,70.30
2018-08-23T05:10:26.942Z,70.20
2018-08-23T05:12:55.844Z,69.70
2018-08-23T05:15:24.652Z,69.90
2018-08-23T05:17:54.572Z,69.60
2018-08-23T05:20:23.545Z,68.80
2018-08-23T05:22:57.546Z,69.10
2018-08-23T05:25:28.112Z,68.90
2018-08-23T05:28:10.572Z,68.80
2018-08-23T05:30:39.566Z,68.60
2018-08-23T05:33:14.617Z,68.00
2018-08-23T05:35:44.094Z,67.80
2018-08-23T05:38:13.412Z,67.50
2018-08-23T05:40:49.397Z,67.20
2018-08-23T05:43:18.349Z,66.80
2018-08-23T05:45:55.664Z,67.00
2018-08-23T05:48:31.929Z,66.50
2018-08-23T05:51:02.085Z,66.40
2018-08-23T05:53:31.258Z,65.60
2018-08-23T05:56:01.229Z,66.00
2018-08-23T05:58:32.421Z,66.60
2018-08-23T06:01:01.913Z,65.70
2018-08-23T06:03:30.792Z,65.50
2018-08-23T06:06:00.703Z,65.60
2018-08-23T06:08:29.571Z,64.60
2018-08-23T06:11:07.789Z,63.80
2018-08-23T06:13:37.356Z,63.50
2018-08-23T06:16:06.728Z,63.30
2018-08-23T06:18:35.540Z,62.70
2018-08-23T06:21:05.631Z,62.10
2018-08-23T06:23:56.840Z,62.00
2018-08-23T06:26:35.412Z,61.20
2018-08-23T06:29:04.350Z,60.80
2018-08-23T06:31:33.450Z,60.70
2018-08-23T06:34:04.185Z,60.00
2018-08-23T06:36:37.554Z,59.40
2018-08-23T06:39:07.502Z,59.60
2018-08-23T06:41:37.102Z,59.00
2018-08-23T06:44:07.076Z,58.60
2018-08-23T06:46:36.066Z,58.20
2018-08-23T06:49:05.044Z,58.30
2018-08-23T06:51:34.053Z,57.50
2018-08-23T06:54:03.536Z,56.30
2018-08-23T06:56:35.556Z,54.70
2018-08-23T06:59:04.594Z,53.30
2018-08-23T07:01:39.603Z,51.50
2018-08-23T07:04:13.174Z,50.30
2018-08-23T07:06:42.437Z,48.60
2018-08-23T07:09:17.129Z,46.90
2018-08-23T07:11:46.555Z,45.20
2018-08-23T07:14:16.841Z,44.80
2018-08-23T07:16:47.652Z,43.70
2018-08-23T07:19:30.677Z,43.80
2018-08-23T07:22:01.665Z,43.60
2018-08-23T07:24:39.274Z,44.10
2018-08-23T07:27:09.699Z,44.40
2018-08-23T07:29:38.758Z,45.40
2018-08-23T07:32:12.806Z,45.90
2018-08-23T07:34:46.904Z,46.00
2018-08-23T07:37:19.647Z,46.60
2018-08-23T07:39:57.747Z,46.50
2018-08-23T07:42:29.000Z,46.40
2018-08-23T07:44:58.620Z,46.80
2018-08-23T07:47:27.773Z,47.30
2018-08-23T07:49:57.720Z,47.20
2018-08-23T07:52:27.930Z,46.70
2018-08-23T07:54:57.467Z,45.90
2018-08-23T07:57:30.147Z,44.80
2018-08-23T08:00:01.367Z,44.00
2018-08-23T08:02:30.870Z,43.70
2018-08-23T08:05:00.100Z,43.40
2018-08-23T08:07:30.859Z,43.40
2018-08-23T08:10:02.680Z,43.40
2018-08-23T08:12:37.729Z,43.40
2018-08-23T08:15:09.771Z,43.00
2018-08-23T08:17:38.689Z,42.40
2018-08-23T08:20:09.053Z,41.70
2018-08-23T08:22:37.972Z,41.70
2018-08-23T08:25:12.129Z,41.50
2018-08-23T08:27:41.090Z,41.80
2018-08-23T08:30:12.956Z,41.60
2018-08-23T08:32:41.680Z,41.70
2018-08-23T08:35:14.547Z,42.60
2018-08-23T08:37:44.030Z,42.30
2018-08-23T08:40:29.241Z,42.40
2018-08-23T08:42:58.209Z,42.70
2018-08-23T08:45:27.461Z,42.80
2018-08-23T08:48:06.436Z,42.60
2018-08-23T08:50:39.361Z,42.70
2018-08-23T08:53:08.194Z,42.50
2018-08-23T08:55:37.304Z,43.00
2018-08-23T08:58:07.947Z,42.80
2018-08-23T09:00:49.535Z,42.50
2018-08-23T09:03:19.244Z,43.00
2018-08-23T09:05:48.153Z,42.50
2018-08-23T09:08:17.209Z,42.90
2018-08-23T09:10:47.108Z,42.80
2018-08-23T09:13:17.554Z,42.80
2018-08-23T09:15:49.493Z,43.00
2018-08-23T09:18:23.435Z,42.40
2018-08-23T09:20:56.297Z,43.00
2018-08-23T09:23:25.412Z,43.20
2018-08-23T09:25:57.838Z,43.80
2018-08-23T09:28:27.033Z,42.90
2018-08-23T09:30:55.871Z,42.60
2018-08-23T09:33:26.004Z,42.60
2018-08-23T09:35:54.893Z,42.20
2018-08-23T09:38:25.497Z,41.70
2018-08-23T09:40:54.388Z,41.10
2018-08-23T09:43:24.181Z,40.00
2018-08-23T09:45:54.284Z,38.50
2018-08-23T09:48:23.124Z,37.40
2018-08-23T09:50:52.156Z,36.90
2018-08-23T09:53:23.832Z,37.10
2018-08-23T09:55:53.709Z,37.10
2018-08-23T09:58:27.777Z,37.10
2018-08-23T10:01:02.548Z,37.30
2018-08-23T10:03:36.856Z,36.60
2018-08-23T10:06:14.730Z,35.80
2018-08-23T10:08:49.057Z,39.20
2018-08-23T10:11:24.657Z,36.60
2018-08-23T10:13:58.773Z,36.50
2018-08-23T10:16:32.932Z,35.60
2018-08-23T10:19:09.964Z,33.90
2018-08-23T10:21:43.964Z,33.90
2018-08-23T10:24:18.247Z,32.60
2018-08-23T10:26:47.130Z,32.60
2018-08-23T10:29:16.084Z,30.70
2018-08-23T10:31:45.117Z,30.30
2018-08-23T10:34:13.911Z,30.70
2018-08-23T10:36:42.825Z,30.30
2018-08-23T10:39:13.102Z,30.10
2018-08-23T10:41:41.960Z,29.80
2018-08-23T10:44:10.869Z,29.80
2018-08-23T10:46:44.920Z,29.80
2018-08-23T10:49:13.801Z,30.10
2018-08-23T10:51:42.598Z,30.40
2018-08-23T10:54:11.535Z,31.10
2018-08-23T10:56:40.477Z,31.20
2018-08-23T10:59:09.666Z,31.40
2018-08-23T11:01:38.676Z,31.90
2018-08-23T11:04:08.910Z,31.40
2018-08-23T11:06:42.100Z,31.50
2018-08-23T11:09:16.098Z,30.90
2018-08-23T11:11:44.907Z,31.40
2018-08-23T11:14:18.946Z,31.40
2018-08-23T11:16:53.025Z,31.10
2018-08-23T11:19:27.032Z,30.30
2018-08-23T11:21:55.869Z,31.00
2018-08-23T11:24:24.933Z,30.60
2018-08-23T11:26:54.572Z,32.00
2018-08-23T11:29:23.452Z,33.20
2018-08-23T11:31:52.303Z,33.90
2018-08-23T11:34:21.302Z,35.20
2018-08-23T11:36:50.093Z,34.90
2018-08-23T11:39:19.784Z,35.40
2018-08-23T11:41:48.689Z,35.50
2018-08-23T11:44:17.715Z,36.10
2018-08-23T11:46:46.544Z,37.20
2018-08-23T11:49:15.477Z,37.20
2018-08-23T11:51:44.494Z,36.80
2018-08-23T11:54:13.388Z,37.00
2018-08-23T11:56:42.302Z,37.40
2018-08-23T11:59:11.209Z,37.60
2018-08-23T12:01:40.029Z,37.30
2018-08-23T12:04:08.757Z,38.80
2018-08-23T12:06:37.721Z,38.40
2018-08-23T12:09:07.625Z,37.50
2018-08-23T12:11:36.368Z,38.10
2018-08-23T12:14:05.307Z,38.30
2018-08-23T12:16:34.418Z,38.10
2018-08-23T12:19:03.257Z,38.90
2018-08-23T12:21:32.103Z,38.50
2018-08-23T12:24:01.194Z,37.90
2018-08-23T12:26:30.109Z,37.40
2018-08-23T12:29:04.188Z,37.80
2018-08-23T12:31:32.870Z,38.00
2018-08-23T12:34:06.031Z,38.90
2018-08-23T12:36:40.164Z,39.20
2018-08-23T12:39:14.933Z,38.70
2018-08-23T12:41:50.194Z,39.70
2018-08-23T12:44:19.411Z,40.50
2018-08-23T12:46:53.417Z,40.60
2018-08-23T12:49:22.238Z,40.70
2018-08-23T12:51:51.064Z,41.00
2018-08-23T12:54:19.973Z,40.90
2018-08-23T12:56:48.788Z,41.50
2018-08-23T12:59:17.857Z,40.70
2018-08-23T13:01:46.684Z,41.50
2018-08-23T13:04:15.611Z,42.20
2018-08-23T13:06:44.561Z,42.30
2018-08-23T13:09:13.493Z,42.00
2018-08-23T13:11:42.230Z,41.60
2018-08-23T13:14:11.196Z,42.10
2018-08-23T13:16:40.053Z,41.80
2018-08-23T13:19:09.824Z,41.70
2018-08-23T13:21:38.718Z,42.20
2018-08-23T13:24:08.536Z,41.70
2018-08-23T13:26:42.578Z,41.60
2018-08-23T13:29:12.401Z,42.70
2018-08-23T13:31:41.308Z,42.80
2018-08-23T13:34:10.697Z,43.10
2018-08-23T13:36:39.543Z,42.00
2018-08-23T13:39:10.262Z,43.40
2018-08-23T13:41:39.887Z,42.90
2018-08-23T13:44:08.785Z,42.60
2018-08-23T13:46:37.847Z,44.60
2018-08-23T13:49:06.652Z,43.90
2018-08-23T13:51:35.355Z,44.50
2018-08-23T13:54:04.238Z,43.80
2018-08-23T13:56:33.166Z,44.40
2018-08-23T13:59:02.376Z,44.30
2018-08-23T14:01:31.281Z,44.90
2018-08-23T14:04:01.525Z,44.80
2018-08-23T14:06:30.355Z,44.20
2018-08-23T14:08:59.113Z,44.30
2018-08-23T14:11:28.062Z,43.80
2018-08-23T14:13:56.881Z,44.40
2018-08-23T14:16:26.025Z,44.30
2018-08-23T14:19:01.270Z,43.80
2018-08-23T14:21:30.117Z,43.70
2018-08-23T14:23:58.954Z,43.90
2018-08-23T14:26:27.803Z,43.80
2018-08-23T14:28:56.669Z,44.00
2018-08-23T14:31:25.600Z,43.70
2018-08-23T14:33:54.403Z,43.60
2018-08-23T14:36:23.262Z,43.90
2018-08-23T14:38:52.259Z,44.30
2018-08-23T14:41:21.272Z,44.30
2018-08-23T14:43:50.104Z,43.90
2018-08-23T14:46:24.244Z,43.60
2018-08-23T14:48:53.070Z,43.40
2018-08-23T14:51:21.997Z,43.00
2018-08-23T14:53:50.762Z,43.30
2018-08-23T14:56:24.832Z,42.50
2018-08-23T14:58:53.726Z,42.00
2018-08-23T15:01:22.999Z,42.50
2018-08-23T15:03:52.147Z,42.30
2018-08-23T15:06:20.893Z,42.00
2018-08-23T15:08:49.868Z,42.90
2018-08-23T15:11:18.869Z,43.10
2018-08-23T15:13:47.682Z,42.90
2018-08-23T15:16:16.673Z,43.20
2018-08-23T15:18:45.635Z,43.40
2018-08-23T15:21:15.399Z,43.40
2018-08-23T15:23:44.488Z,43.30
2018-08-23T15:26:18.574Z,44.40
2018-08-23T15:28:47.397Z,46.70
2018-08-23T15:31:16.402Z,49.60
2018-08-23T15:33:45.326Z,52.60
2018-08-23T15:36:14.210Z,52.70
2018-08-23T15:38:43.030Z,54.40
2018-08-23T15:41:12.384Z,55.70
2018-08-23T15:43:41.972Z,53.90
2018-08-23T15:46:11.043Z,54.30
2018-08-23T15:48:40.025Z,55.80
2018-08-23T15:51:08.997Z,57.10
2018-08-23T15:53:37.878Z,58.70
2018-08-23T15:56:07.990Z,60.70
2018-08-23T15:58:36.894Z,61.90
2018-08-23T16:01:05.809Z,62.50
2018-08-23T16:03:34.888Z,63.10
2018-08-23T16:06:03.807Z,63.60
2018-08-23T16:08:36.888Z,62.80
2018-08-23T16:11:05.873Z,63.00
2018-08-23T16:13:34.761Z,62.30
2018-08-23T16:16:08.858Z,62.60
2018-08-23T16:20:45.114Z,61.90
2018-08-23T16:23:14.185Z,62.00
2018-08-23T16:25:44.060Z,60.80
2018-08-23T16:28:12.890Z,61.40
2018-08-23T16:30:42.997Z,60.30
2018-08-23T16:33:12.443Z,60.90
2018-08-23T16:35:41.754Z,59.40
2018-08-23T16:38:13.140Z,59.40
2018-08-23T16:40:42.075Z,59.00
2018-08-23T16:43:12.529Z,59.00
2018-08-23T16:45:43.748Z,58.90
2018-08-23T16:48:12.673Z,58.70
2018-08-23T16:50:41.469Z,58.50
2018-08-23T16:53:10.424Z,58.40
2018-08-23T16:55:39.340Z,58.50
2018-08-23T16:58:08.463Z,58.30
2018-08-23T17:00:38.131Z,58.10
2018-08-23T17:03:07.058Z,58.10
2018-08-23T17:05:35.871Z,57.90
2018-08-23T17:08:04.647Z,57.50
2018-08-23T17:10:33.621Z,57.50
2018-08-23T17:13:02.720Z,57.90
2018-08-23T17:15:38.620Z,57.70
2018-08-23T17:18:07.638Z,57.90
2018-08-23T17:20:36.550Z,58.10
2018-08-23T17:23:05.542Z,58.30
2018-08-23T17:25:34.328Z,58.10
2018-08-23T17:28:03.065Z,58.30
2018-08-23T17:30:31.813Z,58.60
2018-08-23T17:33:00.678Z,58.20
2018-08-23T17:35:29.526Z,57.60
2018-08-23T17:37:58.473Z,57.80
2018-08-23T17:40:27.277Z,57.40
2018-08-23T17:42:56.260Z,57.20
2018-08-23T17:45:25.972Z,56.00
2018-08-23T17:47:54.845Z,55.80
2018-08-23T17:50:23.749Z,55.30
2018-08-23T17:52:52.541Z,54.90
2018-08-23T17:55:21.340Z,54.80
2018-08-23T17:57:50.111Z,54.60
2018-08-23T18:00:19.126Z,54.90
2018-08-23T18:02:47.985Z,54.80
2018-08-23T18:05:16.821Z,55.20
2018-08-23T18:07:45.657Z,55.40
2018-08-23T18:10:16.179Z,55.20
2018-08-23T18:12:44.905Z,55.00
2018-08-23T18:15:14.012Z,55.40
2018-08-23T18:17:42.889Z,55.70
2018-08-23T18:20:11.810Z,55.50
2018-08-23T18:22:40.609Z,55.20
2018-08-23T18:25:09.558Z,55.20
2018-08-23T18:27:38.569Z,54.80
2018-08-23T18:30:07.685Z,54.60
2018-08-23T18:32:36.590Z,54.80
2018-08-23T18:35:05.542Z,54.80
2018-08-23T18:37:34.555Z,55.00
2018-08-23T18:40:03.261Z,55.10
2018-08-23T18:42:33.224Z,55.00
2018-08-23T18:45:01.992Z,54.80
2018-08-23T18:47:30.809Z,54.90
2018-08-23T18:50:00.543Z,55.00
2018-08-23T18:52:29.400Z,55.30
2018-08-23T18:54:58.169Z,54.90
2018-08-23T18:57:31.020Z,55.40
2018-08-23T18:59:59.878Z,56.00
2018-08-23T19:02:28.771Z,56.50
2018-08-23T19:04:57.721Z,56.90
2018-08-23T19:07:42.877Z,56.90
2018-08-23T19:10:12.379Z,57.60
2018-08-23T19:12:41.168Z,58.10
2018-08-23T19:15:10.136Z,58.20
2018-08-23T19:17:43.115Z,58.50
2018-08-23T19:20:13.096Z,58.40
2018-08-23T19:22:43.121Z,58.70
2018-08-23T19:25:12.062Z,58.90
2018-08-23T19:27:40.837Z,59.50
2018-08-23T19:30:10.035Z,59.70
2018-08-23T19:32:38.872Z,59.50
2018-08-23T19:35:07.775Z,59.60
2018-08-23T19:37:36.551Z,60.10
2018-08-23T19:40:05.572Z,60.40
2018-08-23T19:42:34.581Z,61.50
2018-08-23T19:45:03.322Z,62.90
2018-08-23T19:47:37.289Z,63.70
2018-08-23T19:50:08.867Z,64.70
2018-08-23T19:52:37.734Z,64.70
2018-08-23T19:55:07.820Z,65.50
2018-08-23T19:57:36.844Z,66.70
2018-08-23T20:00:07.317Z,67.50
2018-08-23T20:02:36.168Z,67.90
2018-08-23T20:05:05.055Z,68.50
2018-08-23T20:07:34.014Z,69.20
2018-08-23T20:10:02.942Z,69.00
2018-08-23T20:12:31.886Z,70.10
2018-08-23T20:15:00.722Z,70.10
2018-08-23T20:17:29.581Z,71.40
2018-08-23T20:19:58.468Z,71.50
2018-08-23T20:22:29.293Z,71.60
2018-08-23T20:24:58.435Z,71.40
2018-08-23T20:27:27.285Z,72.50
2018-08-23T20:29:56.043Z,71.90
2018-08-23T20:32:25.920Z,72.40
2018-08-23T20:34:54.780Z,71.10
2018-08-23T20:37:23.680Z,72.50
2018-08-23T20:39:52.589Z,71.80
2018-08-23T20:42:21.518Z,71.60
2018-08-23T20:44:50.324Z,71.50
2018-08-23T20:47:19.126Z,70.70
2018-08-23T20:49:48.125Z,70.70
2018-08-23T20:52:16.844Z,70.20
2018-08-23T20:54:46.249Z,69.90
2018-08-23T20:57:16.054Z,69.80
2018-08-23T20:59:44.816Z,69.90
2018-08-23T21:02:13.702Z,70.00
2018-08-23T21:04:42.663Z,70.30
2018-08-23T21:07:11.481Z,69.80
2018-08-23T21:09:40.261Z,69.50
2018-08-23T21:12:09.116Z,69.10
2018-08-23T21:14:37.832Z,68.80
2018-08-23T21:17:06.629Z,69.90
2018-08-23T21:19:35.413Z,69.20
2018-08-23T21:22:04.133Z,69.30
2018-08-23T21:24:32.978Z,69.50
2018-08-23T21:27:01.746Z,69.20
2018-08-23T21:29:30.525Z,68.40
2018-08-23T21:31:59.359Z,68.70
2018-08-23T21:34:28.006Z,69.20
2018-08-23T21:36:56.720Z,69.10
2018-08-23T21:39:25.697Z,69.00
2018-08-23T21:41:54.560Z,68.60
2018-08-23T21:44:23.418Z,68.90
2018-08-23T21:46:52.188Z,68.80
2018-08-23T21:49:20.983Z,68.80
2018-08-23T21:51:49.772Z,68.50
2018-08-23T21:54:18.557Z,67.90
2018-08-23T21:56:47.535Z,68.00
2018-08-23T21:59:16.365Z,67.90
2018-08-23T22:01:45.225Z,67.90
2018-08-23T22:04:14.004Z,67.80
2018-08-23T22:06:42.906Z,68.50
2018-08-23T22:09:11.628Z,68.30
2018-08-23T22:11:40.309Z,67.90
2018-08-23T22:14:08.989Z,68.00
2018-08-23T22:16:37.853Z,68.00
2018-08-23T22:19:06.974Z,67.50
2018-08-23T22:21:35.767Z,68.30
2018-08-23T22:24:04.625Z,67.90
2018-08-23T22:26:33.600Z,68.60
2018-08-23T22:29:02.236Z,68.30
2018-08-23T22:31:30.952Z,68.20
2018-08-23T22:33:59.713Z,68.00
2018-08-23T22:36:28.568Z,68.10
2018-08-23T22:38:57.269Z,68.60
2018-08-23T22:41:25.987Z,68.70
2018-08-23T22:43:54.772Z,68.70
2018-08-23T22:46:23.446Z,68.90
2018-08-23T22:48:52.237Z,69.00
2018-08-23T22:51:21.099Z,69.40
2018-08-23T22:53:49.914Z,69.90
2018-08-23T22:56:18.608Z,69.90
2018-08-23T22:58:47.398Z,69.70
2018-08-23T23:01:16.126Z,70.10
2018-08-23T23:03:50.082Z,70.00
2018-08-23T23:06:18.881Z,70.00
2018-08-23T23:08:47.664Z,70.50
2018-08-23T23:11:17.381Z,70.30
2018-08-23T23:13:46.157Z,70.80
2018-08-23T23:16:14.894Z,70.90
2018-08-23T23:18:43.592Z,70.90
2018-08-23T23:21:12.272Z,70.60
2018-08-23T23:23:40.967Z,70.40
2018-08-23T23:26:32.768Z,70.70
2018-08-23T23:29:02.160Z,70.70
2018-08-23T23:31:31.748Z,70.30
2018-08-23T23:34:00.598Z,70.70
2018-08-23T23:36:29.384Z,70.20
2018-08-23T23:38:58.176Z,70.20
2018-08-23T23:41:27.013Z,70.40
2018-08-23T23:43:55.709Z,70.20
2018-08-23T23:46:24.401Z,70.40
2018-08-23T23:48:53.108Z,70.10
2018-08-23T23:51:21.752Z,70.40
2018-08-23T23:53:50.438Z,70.40
2018-08-23T23:56:20.305Z,70.70
2018-08-23T23:58:48.922Z,70.30
